Atco, New Jersey
Current Conditions -  °F | °C
As of 12:54 AM on Saturday 25 Oct 2014 (Local Time) from KVAY Reporting Station
Clear Clear  
Wind Chill: 54°   Ceiling: Unl
Heat Index: 54°   Visibility: 10mi
Dew Point: 38°   Wind: 3mph
Humidity: 55%   Direction: 280°W
Pressure: 29.88"   Gusts: NA
Location:  39.77°N, 74.89°W
Report Text: KVAY 250454Z AUTO 28003KT 10SM CLR 12/03 A2988 RMK AO2 SLP118 T01220033 402060106
Loading
Personal Weather Stations






























Interactive Weather Map
Tropical Storm Tracking
New forecast layout! Learn more

10-Day Weather Forecast

Advertisements
Track Severe Weather on mobile